sensor_id;sensor_type;location;lat;lon;timestamp;P1;durP1;ratioP1;P2;durP2;ratioP2
21114;SDS011;10715;48.546;9.896;2023-06-24T00:02:19;1.90;;;1.80;;
21114;SDS011;10715;48.546;9.896;2023-06-24T00:04:45;3.00;;;2.20;;
21114;SDS011;10715;48.546;9.896;2023-06-24T00:07:11;2.80;;;2.57;;
21114;SDS011;10715;48.546;9.896;2023-06-24T00:09:37;2.90;;;2.70;;
21114;SDS011;10715;48.546;9.896;2023-06-24T00:12:02;2.97;;;2.73;;
21114;SDS011;10715;48.546;9.896;2023-06-24T00:14:28;2.30;;;2.10;;
21114;SDS011;10715;48.546;9.896;2023-06-24T00:16:54;2.93;;;2.73;;
21114;SDS011;10715;48.546;9.896;2023-06-24T00:19:22;3.80;;;2.40;;
21114;SDS011;10715;48.546;9.896;2023-06-24T00:21:49;3.33;;;2.93;;
21114;SDS011;10715;48.546;9.896;2023-06-24T00:24:21;2.60;;;2.40;;
21114;SDS011;10715;48.546;9.896;2023-06-24T00:26:54;2.90;;;2.70;;
21114;SDS011;10715;48.546;9.896;2023-06-24T00:29:19;2.40;;;2.20;;
21114;SDS011;10715;48.546;9.896;2023-06-24T00:31:45;2.33;;;2.13;;
21114;SDS011;10715;48.546;9.896;2023-06-24T00:34:11;8.43;;;2.47;;
21114;SDS011;10715;48.546;9.896;2023-06-24T00:36:37;2.67;;;2.47;;
21114;SDS011;10715;48.546;9.896;2023-06-24T00:39:03;4.10;;;2.63;;
21114;SDS011;10715;48.546;9.896;2023-06-24T00:41:33;2.60;;;2.40;;
21114;SDS011;10715;48.546;9.896;2023-06-24T00:43:59;4.67;;;3.23;;
21114;SDS011;10715;48.546;9.896;2023-06-24T00:46:26;2.17;;;1.90;;
21114;SDS011;10715;48.546;9.896;2023-06-24T00:48:54;2.40;;;2.17;;
21114;SDS011;10715;48.546;9.896;2023-06-24T00:51:20;2.40;;;2.20;;
21114;SDS011;10715;48.546;9.896;2023-06-24T00:53:52;2.73;;;2.50;;
21114;SDS011;10715;48.546;9.896;2023-06-24T00:56:18;4.53;;;2.40;;
21114;SDS011;10715;48.546;9.896;2023-06-24T00:58:47;3.73;;;3.17;;
21114;SDS011;10715;48.546;9.896;2023-06-24T01:01:13;3.80;;;2.63;;
21114;SDS011;10715;48.546;9.896;2023-06-24T01:03:41;2.60;;;2.20;;
21114;SDS011;10715;48.546;9.896;2023-06-24T01:06:08;3.60;;;2.20;;
21114;SDS011;10715;48.546;9.896;2023-06-24T01:08:34;6.27;;;2.53;;
21114;SDS011;10715;48.546;9.896;2023-06-24T01:11:00;2.43;;;2.23;;
21114;SDS011;10715;48.546;9.896;2023-06-24T01:13:26;2.70;;;2.50;;
21114;SDS011;10715;48.546;9.896;2023-06-24T01:15:52;2.80;;;2.60;;
21114;SDS011;10715;48.546;9.896;2023-06-24T01:18:24;2.40;;;2.20;;
21114;SDS011;10715;48.546;9.896;2023-06-24T01:20:55;2.37;;;2.17;;
21114;SDS011;10715;48.546;9.896;2023-06-24T01:26:40;2.43;;;2.10;;
21114;SDS011;10715;48.546;9.896;2023-06-24T01:29:36;2.43;;;2.23;;
21114;SDS011;10715;48.546;9.896;2023-06-24T01:32:22;2.40;;;2.20;;
21114;SDS011;10715;48.546;9.896;2023-06-24T01:35:16;2.17;;;2.07;;
21114;SDS011;10715;48.546;9.896;2023-06-24T01:37:47;2.53;;;1.90;;
21114;SDS011;10715;48.546;9.896;2023-06-24T01:40:25;2.93;;;2.60;;
21114;SDS011;10715;48.546;9.896;2023-06-24T01:42:53;3.10;;;2.03;;
21114;SDS011;10715;48.546;9.896;2023-06-24T01:45:26;2.97;;;2.77;;
21114;SDS011;10715;48.546;9.896;2023-06-24T01:47:59;6.43;;;2.70;;
21114;SDS011;10715;48.546;9.896;2023-06-24T01:50:30;3.27;;;2.97;;
21114;SDS011;10715;48.546;9.896;2023-06-24T01:52:58;5.03;;;1.60;;
21114;SDS011;10715;48.546;9.896;2023-06-24T01:55:26;4.17;;;2.70;;
21114;SDS011;10715;48.546;9.896;2023-06-24T01:57:53;3.70;;;3.40;;
21114;SDS011;10715;48.546;9.896;2023-06-24T02:00:21;3.50;;;2.83;;
21114;SDS011;10715;48.546;9.896;2023-06-24T02:02:49;4.70;;;2.93;;
21114;SDS011;10715;48.546;9.896;2023-06-24T02:05:15;2.17;;;1.97;;
21114;SDS011;10715;48.546;9.896;2023-06-24T02:07:44;2.93;;;2.67;;
21114;SDS011;10715;48.546;9.896;2023-06-24T02:10:11;3.07;;;2.87;;
21114;SDS011;10715;48.546;9.896;2023-06-24T02:12:38;3.33;;;2.70;;
21114;SDS011;10715;48.546;9.896;2023-06-24T02:15:05;2.73;;;2.53;;
21114;SDS011;10715;48.546;9.896;2023-06-24T02:17:33;6.77;;;2.83;;
21114;SDS011;10715;48.546;9.896;2023-06-24T02:20:00;2.53;;;2.33;;
21114;SDS011;10715;48.546;9.896;2023-06-24T02:22:29;2.00;;;1.80;;
21114;SDS011;10715;48.546;9.896;2023-06-24T02:24:54;4.90;;;2.20;;
21114;SDS011;10715;48.546;9.896;2023-06-24T02:27:21;2.27;;;2.07;;
21114;SDS011;10715;48.546;9.896;2023-06-24T02:29:48;3.60;;;2.17;;
21114;SDS011;10715;48.546;9.896;2023-06-24T02:32:14;2.47;;;2.27;;
21114;SDS011;10715;48.546;9.896;2023-06-24T02:34:40;2.90;;;2.30;;
21114;SDS011;10715;48.546;9.896;2023-06-24T02:37:06;4.30;;;2.07;;
21114;SDS011;10715;48.546;9.896;2023-06-24T02:39:31;3.43;;;2.30;;
21114;SDS011;10715;48.546;9.896;2023-06-24T02:41:57;1.93;;;1.60;;
21114;SDS011;10715;48.546;9.896;2023-06-24T02:44:23;6.93;;;2.50;;
21114;SDS011;10715;48.546;9.896;2023-06-24T02:46:49;3.67;;;2.30;;
21114;SDS011;10715;48.546;9.896;2023-06-24T02:49:15;2.20;;;2.00;;
21114;SDS011;10715;48.546;9.896;2023-06-24T02:51:43;2.90;;;2.50;;
21114;SDS011;10715;48.546;9.896;2023-06-24T02:54:09;1.60;;;1.40;;
21114;SDS011;10715;48.546;9.896;2023-06-24T02:56:37;4.37;;;2.17;;
21114;SDS011;10715;48.546;9.896;2023-06-24T02:59:07;3.43;;;2.57;;
21114;SDS011;10715;48.546;9.896;2023-06-24T03:01:33;2.27;;;2.07;;
21114;SDS011;10715;48.546;9.896;2023-06-24T03:04:04;2.60;;;2.40;;
21114;SDS011;10715;48.546;9.896;2023-06-24T03:06:31;3.90;;;2.40;;
21114;SDS011;10715;48.546;9.896;2023-06-24T03:08:57;2.37;;;2.17;;
21114;SDS011;10715;48.546;9.896;2023-06-24T03:11:25;2.53;;;2.33;;
21114;SDS011;10715;48.546;9.896;2023-06-24T03:13:51;3.10;;;2.80;;
21114;SDS011;10715;48.546;9.896;2023-06-24T03:16:16;3.60;;;3.30;;
21114;SDS011;10715;48.546;9.896;2023-06-24T03:18:42;4.23;;;2.50;;
21114;SDS011;10715;48.546;9.896;2023-06-24T03:21:08;3.27;;;2.80;;
21114;SDS011;10715;48.546;9.896;2023-06-24T03:23:34;3.60;;;2.73;;
21114;SDS011;10715;48.546;9.896;2023-06-24T03:26:00;5.23;;;2.40;;
21114;SDS011;10715;48.546;9.896;2023-06-24T03:28:28;5.23;;;2.53;;
21114;SDS011;10715;48.546;9.896;2023-06-24T03:30:55;2.23;;;2.03;;
21114;SDS011;10715;48.546;9.896;2023-06-24T03:33:22;2.30;;;2.10;;
21114;SDS011;10715;48.546;9.896;2023-06-24T03:35:49;3.40;;;2.20;;
21114;SDS011;10715;48.546;9.896;2023-06-24T03:38:15;6.23;;;2.60;;
21114;SDS011;10715;48.546;9.896;2023-06-24T03:40:41;4.40;;;2.13;;
21114;SDS011;10715;48.546;9.896;2023-06-24T03:43:06;2.50;;;2.30;;
21114;SDS011;10715;48.546;9.896;2023-06-24T03:45:32;5.47;;;3.20;;
21114;SDS011;10715;48.546;9.896;2023-06-24T03:47:58;2.17;;;2.07;;
21114;SDS011;10715;48.546;9.896;2023-06-24T03:50:24;4.20;;;3.40;;
21114;SDS011;10715;48.546;9.896;2023-06-24T03:52:50;2.80;;;2.13;;
21114;SDS011;10715;48.546;9.896;2023-06-24T03:55:16;4.33;;;3.00;;
21114;SDS011;10715;48.546;9.896;2023-06-24T03:57:42;4.27;;;2.57;;
21114;SDS011;10715;48.546;9.896;2023-06-24T04:00:07;2.57;;;2.37;;
21114;SDS011;10715;48.546;9.896;2023-06-24T04:02:38;2.73;;;2.53;;
21114;SDS011;10715;48.546;9.896;2023-06-24T04:05:04;3.10;;;2.90;;
21114;SDS011;10715;48.546;9.896;2023-06-24T04:07:31;4.03;;;3.60;;
21114;SDS011;10715;48.546;9.896;2023-06-24T04:09:57;3.97;;;2.67;;
21114;SDS011;10715;48.546;9.896;2023-06-24T04:12:23;4.83;;;3.27;;
21114;SDS011;10715;48.546;9.896;2023-06-24T04:14:49;3.73;;;2.77;;
21114;SDS011;10715;48.546;9.896;2023-06-24T04:17:15;4.00;;;2.73;;
21114;SDS011;10715;48.546;9.896;2023-06-24T04:19:41;3.87;;;3.20;;
21114;SDS011;10715;48.546;9.896;2023-06-24T04:22:07;4.70;;;2.70;;
21114;SDS011;10715;48.546;9.896;2023-06-24T04:24:33;3.27;;;3.00;;
21114;SDS011;10715;48.546;9.896;2023-06-24T04:26:58;7.03;;;5.80;;
21114;SDS011;10715;48.546;9.896;2023-06-24T04:29:24;12.47;;;6.10;;
21114;SDS011;10715;48.546;9.896;2023-06-24T04:31:50;8.57;;;7.80;;
21114;SDS011;10715;48.546;9.896;2023-06-24T04:34:16;4.93;;;4.27;;
21114;SDS011;10715;48.546;9.896;2023-06-24T04:36:41;4.33;;;3.93;;
21114;SDS011;10715;48.546;9.896;2023-06-24T04:39:07;4.43;;;3.77;;
21114;SDS011;10715;48.546;9.896;2023-06-24T04:41:33;5.33;;;4.97;;
21114;SDS011;10715;48.546;9.896;2023-06-24T04:43:59;5.23;;;3.57;;
21114;SDS011;10715;48.546;9.896;2023-06-24T04:46:24;6.20;;;3.90;;
21114;SDS011;10715;48.546;9.896;2023-06-24T04:48:50;6.37;;;5.87;;
21114;SDS011;10715;48.546;9.896;2023-06-24T04:51:16;5.63;;;4.13;;
21114;SDS011;10715;48.546;9.896;2023-06-24T04:53:42;5.80;;;4.70;;
21114;SDS011;10715;48.546;9.896;2023-06-24T04:56:07;12.20;;;3.73;;
21114;SDS011;10715;48.546;9.896;2023-06-24T04:58:33;5.53;;;4.60;;
21114;SDS011;10715;48.546;9.896;2023-06-24T05:00:59;10.40;;;4.13;;
21114;SDS011;10715;48.546;9.896;2023-06-24T05:03:25;6.43;;;3.80;;
21114;SDS011;10715;48.546;9.896;2023-06-24T05:05:50;5.77;;;5.07;;
21114;SDS011;10715;48.546;9.896;2023-06-24T05:08:16;3.50;;;3.20;;
21114;SDS011;10715;48.546;9.896;2023-06-24T05:10:42;5.37;;;4.50;;
21114;SDS011;10715;48.546;9.896;2023-06-24T05:13:07;8.17;;;5.40;;
21114;SDS011;10715;48.546;9.896;2023-06-24T05:15:33;6.80;;;5.13;;
21114;SDS011;10715;48.546;9.896;2023-06-24T05:17:59;5.17;;;4.70;;
21114;SDS011;10715;48.546;9.896;2023-06-24T05:20:24;11.23;;;4.00;;
21114;SDS011;10715;48.546;9.896;2023-06-24T05:22:50;9.07;;;4.13;;
21114;SDS011;10715;48.546;9.896;2023-06-24T05:25:16;4.47;;;4.07;;
21114;SDS011;10715;48.546;9.896;2023-06-24T05:27:41;5.53;;;3.80;;
21114;SDS011;10715;48.546;9.896;2023-06-24T05:30:09;4.87;;;4.13;;
21114;SDS011;10715;48.546;9.896;2023-06-24T05:32:35;3.87;;;3.47;;
21114;SDS011;10715;48.546;9.896;2023-06-24T05:35:01;7.53;;;5.00;;
21114;SDS011;10715;48.546;9.896;2023-06-24T05:37:27;6.37;;;3.97;;
21114;SDS011;10715;48.546;9.896;2023-06-24T05:39:52;5.00;;;4.00;;
21114;SDS011;10715;48.546;9.896;2023-06-24T05:42:18;4.73;;;4.33;;
21114;SDS011;10715;48.546;9.896;2023-06-24T05:44:44;6.53;;;4.73;;
21114;SDS011;10715;48.546;9.896;2023-06-24T05:47:10;5.37;;;4.50;;
21114;SDS011;10715;48.546;9.896;2023-06-24T05:49:36;4.03;;;3.77;;
21114;SDS011;10715;48.546;9.896;2023-06-24T05:52:01;5.80;;;5.20;;
21114;SDS011;10715;48.546;9.896;2023-06-24T05:54:27;10.80;;;5.47;;
21114;SDS011;10715;48.546;9.896;2023-06-24T05:56:53;5.93;;;5.17;;
21114;SDS011;10715;48.546;9.896;2023-06-24T05:59:18;5.73;;;3.60;;
21114;SDS011;10715;48.546;9.896;2023-06-24T06:01:44;3.00;;;2.80;;
21114;SDS011;10715;48.546;9.896;2023-06-24T06:04:10;5.73;;;2.67;;
21114;SDS011;10715;48.546;9.896;2023-06-24T06:06:36;4.00;;;2.37;;
21114;SDS011;10715;48.546;9.896;2023-06-24T06:09:01;4.30;;;3.07;;
21114;SDS011;10715;48.546;9.896;2023-06-24T06:11:27;2.97;;;2.50;;
21114;SDS011;10715;48.546;9.896;2023-06-24T06:13:53;2.80;;;1.97;;
21114;SDS011;10715;48.546;9.896;2023-06-24T06:16:19;6.80;;;2.63;;
21114;SDS011;10715;48.546;9.896;2023-06-24T06:18:44;2.30;;;2.10;;
21114;SDS011;10715;48.546;9.896;2023-06-24T06:21:10;2.90;;;2.70;;
21114;SDS011;10715;48.546;9.896;2023-06-24T06:23:36;5.40;;;1.97;;
21114;SDS011;10715;48.546;9.896;2023-06-24T06:26:01;2.43;;;1.80;;
21114;SDS011;10715;48.546;9.896;2023-06-24T06:28:27;3.40;;;2.17;;
21114;SDS011;10715;48.546;9.896;2023-06-24T06:30:53;1.93;;;1.67;;
21114;SDS011;10715;48.546;9.896;2023-06-24T06:33:19;3.60;;;2.40;;
21114;SDS011;10715;48.546;9.896;2023-06-24T06:35:44;1.73;;;1.20;;
21114;SDS011;10715;48.546;9.896;2023-06-24T06:38:10;2.57;;;1.67;;
21114;SDS011;10715;48.546;9.896;2023-06-24T06:40:36;2.33;;;2.13;;
21114;SDS011;10715;48.546;9.896;2023-06-24T06:43:02;2.70;;;2.37;;
21114;SDS011;10715;48.546;9.896;2023-06-24T06:45:27;2.03;;;1.80;;
21114;SDS011;10715;48.546;9.896;2023-06-24T06:47:53;1.70;;;1.50;;
21114;SDS011;10715;48.546;9.896;2023-06-24T06:50:19;1.50;;;1.13;;
21114;SDS011;10715;48.546;9.896;2023-06-24T06:52:44;1.70;;;1.60;;
21114;SDS011;10715;48.546;9.896;2023-06-24T06:55:10;2.20;;;2.00;;
21114;SDS011;10715;48.546;9.896;2023-06-24T06:57:36;2.10;;;1.70;;
21114;SDS011;10715;48.546;9.896;2023-06-24T07:00:02;2.30;;;2.10;;
21114;SDS011;10715;48.546;9.896;2023-06-24T07:02:29;1.77;;;1.57;;
21114;SDS011;10715;48.546;9.896;2023-06-24T07:04:54;2.23;;;2.10;;
21114;SDS011;10715;48.546;9.896;2023-06-24T07:07:20;4.43;;;2.00;;
21114;SDS011;10715;48.546;9.896;2023-06-24T07:09:45;1.77;;;1.67;;
21114;SDS011;10715;48.546;9.896;2023-06-24T07:12:12;1.50;;;1.33;;
21114;SDS011;10715;48.546;9.896;2023-06-24T07:14:38;3.00;;;2.53;;
21114;SDS011;10715;48.546;9.896;2023-06-24T07:17:04;2.90;;;1.50;;
21114;SDS011;10715;48.546;9.896;2023-06-24T07:19:30;2.07;;;1.87;;
21114;SDS011;10715;48.546;9.896;2023-06-24T07:21:56;2.37;;;2.17;;
21114;SDS011;10715;48.546;9.896;2023-06-24T07:24:21;1.83;;;1.73;;
21114;SDS011;10715;48.546;9.896;2023-06-24T07:26:47;2.10;;;1.83;;
21114;SDS011;10715;48.546;9.896;2023-06-24T07:29:13;2.40;;;2.13;;
21114;SDS011;10715;48.546;9.896;2023-06-24T07:31:39;1.80;;;1.70;;
21114;SDS011;10715;48.546;9.896;2023-06-24T07:34:04;3.97;;;1.77;;
21114;SDS011;10715;48.546;9.896;2023-06-24T07:36:30;2.80;;;2.07;;
21114;SDS011;10715;48.546;9.896;2023-06-24T07:38:56;2.43;;;2.23;;
21114;SDS011;10715;48.546;9.896;2023-06-24T07:41:22;2.80;;;1.70;;
21114;SDS011;10715;48.546;9.896;2023-06-24T07:43:47;3.10;;;2.90;;
21114;SDS011;10715;48.546;9.896;2023-06-24T07:46:13;2.20;;;2.00;;
21114;SDS011;10715;48.546;9.896;2023-06-24T07:48:39;3.50;;;1.83;;
21114;SDS011;10715;48.546;9.896;2023-06-24T07:51:04;3.53;;;3.23;;
21114;SDS011;10715;48.546;9.896;2023-06-24T07:53:30;2.83;;;2.43;;
21114;SDS011;10715;48.546;9.896;2023-06-24T07:55:58;2.40;;;2.03;;
21114;SDS011;10715;48.546;9.896;2023-06-24T07:58:24;2.10;;;1.87;;
21114;SDS011;10715;48.546;9.896;2023-06-24T08:00:49;1.87;;;1.77;;
21114;SDS011;10715;48.546;9.896;2023-06-24T08:03:15;3.17;;;2.87;;
21114;SDS011;10715;48.546;9.896;2023-06-24T08:05:41;4.17;;;2.33;;
21114;SDS011;10715;48.546;9.896;2023-06-24T08:08:07;1.90;;;1.47;;
21114;SDS011;10715;48.546;9.896;2023-06-24T08:10:33;2.93;;;2.70;;
21114;SDS011;10715;48.546;9.896;2023-06-24T08:12:59;2.10;;;2.00;;
21114;SDS011;10715;48.546;9.896;2023-06-24T08:15:25;3.33;;;2.27;;
21114;SDS011;10715;48.546;9.896;2023-06-24T08:17:54;3.23;;;3.03;;
21114;SDS011;10715;48.546;9.896;2023-06-24T08:20:20;4.17;;;2.80;;
21114;SDS011;10715;48.546;9.896;2023-06-24T08:22:47;3.70;;;3.07;;
21114;SDS011;10715;48.546;9.896;2023-06-24T08:25:12;2.30;;;2.10;;
21114;SDS011;10715;48.546;9.896;2023-06-24T08:27:38;2.70;;;1.93;;
21114;SDS011;10715;48.546;9.896;2023-06-24T08:30:05;3.93;;;2.23;;
21114;SDS011;10715;48.546;9.896;2023-06-24T08:32:31;2.70;;;2.57;;
21114;SDS011;10715;48.546;9.896;2023-06-24T08:34:57;2.60;;;2.40;;
21114;SDS011;10715;48.546;9.896;2023-06-24T08:37:22;2.40;;;2.27;;
21114;SDS011;10715;48.546;9.896;2023-06-24T08:39:48;1.93;;;1.83;;
21114;SDS011;10715;48.546;9.896;2023-06-24T08:42:14;2.70;;;2.37;;
21114;SDS011;10715;48.546;9.896;2023-06-24T08:44:43;3.30;;;3.10;;
21114;SDS011;10715;48.546;9.896;2023-06-24T08:47:08;2.57;;;2.37;;
21114;SDS011;10715;48.546;9.896;2023-06-24T08:49:36;2.73;;;2.37;;
21114;SDS011;10715;48.546;9.896;2023-06-24T08:52:11;3.10;;;2.43;;
21114;SDS011;10715;48.546;9.896;2023-06-24T08:54:40;1.90;;;1.80;;
21114;SDS011;10715;48.546;9.896;2023-06-24T08:57:06;8.13;;;4.50;;
21114;SDS011;10715;48.546;9.896;2023-06-24T08:59:33;14.03;;;5.47;;
21114;SDS011;10715;48.546;9.896;2023-06-24T09:02:00;2.53;;;2.03;;
21114;SDS011;10715;48.546;9.896;2023-06-24T09:04:26;2.47;;;2.03;;
21114;SDS011;10715;48.546;9.896;2023-06-24T09:06:52;3.60;;;3.40;;
21114;SDS011;10715;48.546;9.896;2023-06-24T09:09:21;2.07;;;1.77;;
21114;SDS011;10715;48.546;9.896;2023-06-24T09:11:55;2.57;;;2.37;;
21114;SDS011;10715;48.546;9.896;2023-06-24T09:14:25;2.73;;;2.47;;
21114;SDS011;10715;48.546;9.896;2023-06-24T09:16:58;4.20;;;1.80;;
21114;SDS011;10715;48.546;9.896;2023-06-24T09:19:31;2.43;;;2.23;;
21114;SDS011;10715;48.546;9.896;2023-06-24T09:22:05;2.70;;;2.50;;
21114;SDS011;10715;48.546;9.896;2023-06-24T09:24:32;3.10;;;2.30;;
21114;SDS011;10715;48.546;9.896;2023-06-24T09:26:58;2.37;;;2.17;;
21114;SDS011;10715;48.546;9.896;2023-06-24T09:29:28;2.70;;;2.50;;
21114;SDS011;10715;48.546;9.896;2023-06-24T09:31:57;2.33;;;2.13;;
21114;SDS011;10715;48.546;9.896;2023-06-24T09:34:25;3.40;;;3.00;;
21114;SDS011;10715;48.546;9.896;2023-06-24T09:36:55;2.43;;;2.23;;
21114;SDS011;10715;48.546;9.896;2023-06-24T09:39:22;3.10;;;2.90;;
21114;SDS011;10715;48.546;9.896;2023-06-24T09:41:59;3.50;;;2.10;;
21114;SDS011;10715;48.546;9.896;2023-06-24T09:44:26;2.10;;;2.00;;
21114;SDS011;10715;48.546;9.896;2023-06-24T09:46:52;3.80;;;3.37;;
21114;SDS011;10715;48.546;9.896;2023-06-24T09:49:19;2.40;;;2.20;;
21114;SDS011;10715;48.546;9.896;2023-06-24T09:51:45;2.53;;;2.33;;
21114;SDS011;10715;48.546;9.896;2023-06-24T09:54:14;3.60;;;2.73;;
21114;SDS011;10715;48.546;9.896;2023-06-24T09:56:45;2.50;;;2.40;;
21114;SDS011;10715;48.546;9.896;2023-06-24T09:59:14;2.53;;;2.33;;
21114;SDS011;10715;48.546;9.896;2023-06-24T10:01:43;2.60;;;2.40;;
21114;SDS011;10715;48.546;9.896;2023-06-24T10:04:12;3.03;;;2.83;;
21114;SDS011;10715;48.546;9.896;2023-06-24T10:06:42;3.83;;;2.73;;
21114;SDS011;10715;48.546;9.896;2023-06-24T10:09:08;4.53;;;3.10;;
21114;SDS011;10715;48.546;9.896;2023-06-24T10:11:35;6.63;;;4.43;;
21114;SDS011;10715;48.546;9.896;2023-06-24T10:14:01;3.37;;;3.13;;
21114;SDS011;10715;48.546;9.896;2023-06-24T10:16:27;2.73;;;2.57;;
21114;SDS011;10715;48.546;9.896;2023-06-24T10:18:58;3.00;;;2.57;;
21114;SDS011;10715;48.546;9.896;2023-06-24T10:21:44;2.97;;;2.77;;
21114;SDS011;10715;48.546;9.896;2023-06-24T10:24:12;2.70;;;2.50;;
21114;SDS011;10715;48.546;9.896;2023-06-24T10:26:39;2.20;;;2.00;;
21114;SDS011;10715;48.546;9.896;2023-06-24T10:31:50;3.30;;;2.50;;
21114;SDS011;10715;48.546;9.896;2023-06-24T10:43:02;2.00;;;1.90;;
21114;SDS011;10715;48.546;9.896;2023-06-24T10:47:39;3.03;;;2.83;;
21114;SDS011;10715;48.546;9.896;2023-06-24T10:50:06;2.60;;;2.50;;
21114;SDS011;10715;48.546;9.896;2023-06-24T10:52:37;3.60;;;2.97;;
21114;SDS011;10715;48.546;9.896;2023-06-24T10:55:04;3.00;;;2.00;;
21114;SDS011;10715;48.546;9.896;2023-06-24T10:57:32;2.03;;;1.53;;
21114;SDS011;10715;48.546;9.896;2023-06-24T10:59:57;3.20;;;2.60;;
21114;SDS011;10715;48.546;9.896;2023-06-24T11:02:24;1.97;;;1.87;;
21114;SDS011;10715;48.546;9.896;2023-06-24T11:07:18;2.20;;;1.70;;
21114;SDS011;10715;48.546;9.896;2023-06-24T11:09:49;2.10;;;2.00;;
21114;SDS011;10715;48.546;9.896;2023-06-24T11:12:23;3.00;;;2.57;;
21114;SDS011;10715;48.546;9.896;2023-06-24T11:14:50;2.67;;;2.47;;
21114;SDS011;10715;48.546;9.896;2023-06-24T11:17:19;2.53;;;2.30;;
21114;SDS011;10715;48.546;9.896;2023-06-24T11:19:45;2.63;;;2.43;;
21114;SDS011;10715;48.546;9.896;2023-06-24T11:22:11;3.30;;;2.87;;
21114;SDS011;10715;48.546;9.896;2023-06-24T11:24:37;2.43;;;2.23;;
21114;SDS011;10715;48.546;9.896;2023-06-24T11:27:04;1.73;;;1.63;;
21114;SDS011;10715;48.546;9.896;2023-06-24T11:29:31;2.00;;;1.80;;
21114;SDS011;10715;48.546;9.896;2023-06-24T11:31:57;2.57;;;2.37;;
21114;SDS011;10715;48.546;9.896;2023-06-24T11:34:24;2.70;;;2.50;;
21114;SDS011;10715;48.546;9.896;2023-06-24T11:36:50;2.90;;;2.70;;
21114;SDS011;10715;48.546;9.896;2023-06-24T11:39:23;4.40;;;3.50;;
21114;SDS011;10715;48.546;9.896;2023-06-24T11:41:50;5.00;;;3.03;;
21114;SDS011;10715;48.546;9.896;2023-06-24T11:44:20;2.80;;;2.60;;
21114;SDS011;10715;48.546;9.896;2023-06-24T11:46:48;4.20;;;1.87;;
21114;SDS011;10715;48.546;9.896;2023-06-24T11:49:14;9.30;;;3.50;;
21114;SDS011;10715;48.546;9.896;2023-06-24T11:51:47;2.73;;;2.53;;
21114;SDS011;10715;48.546;9.896;2023-06-24T11:54:19;3.10;;;2.80;;
21114;SDS011;10715;48.546;9.896;2023-06-24T11:56:49;2.37;;;2.17;;
21114;SDS011;10715;48.546;9.896;2023-06-24T11:59:19;2.90;;;2.60;;
21114;SDS011;10715;48.546;9.896;2023-06-24T12:01:55;4.93;;;3.47;;
21114;SDS011;10715;48.546;9.896;2023-06-24T12:04:28;1.97;;;1.83;;
21114;SDS011;10715;48.546;9.896;2023-06-24T12:06:57;6.20;;;3.50;;
21114;SDS011;10715;48.546;9.896;2023-06-24T12:09:24;2.93;;;2.70;;
21114;SDS011;10715;48.546;9.896;2023-06-24T12:11:49;3.40;;;2.97;;
21114;SDS011;10715;48.546;9.896;2023-06-24T12:14:16;2.90;;;2.70;;
21114;SDS011;10715;48.546;9.896;2023-06-24T12:16:42;2.37;;;2.10;;
21114;SDS011;10715;48.546;9.896;2023-06-24T12:19:08;2.70;;;2.50;;
21114;SDS011;10715;48.546;9.896;2023-06-24T12:21:34;2.90;;;2.70;;
21114;SDS011;10715;48.546;9.896;2023-06-24T12:24:01;2.80;;;2.60;;
21114;SDS011;10715;48.546;9.896;2023-06-24T12:26:26;2.73;;;2.53;;
21114;SDS011;10715;48.546;9.896;2023-06-24T12:28:55;3.07;;;2.87;;
21114;SDS011;10715;48.546;9.896;2023-06-24T12:31:21;3.00;;;2.47;;
21114;SDS011;10715;48.546;9.896;2023-06-24T12:33:48;3.80;;;3.60;;
21114;SDS011;10715;48.546;9.896;2023-06-24T12:36:13;2.90;;;2.40;;
21114;SDS011;10715;48.546;9.896;2023-06-24T12:38:39;4.37;;;3.03;;
21114;SDS011;10715;48.546;9.896;2023-06-24T12:41:05;4.13;;;3.10;;
21114;SDS011;10715;48.546;9.896;2023-06-24T12:43:32;2.07;;;1.83;;
21114;SDS011;10715;48.546;9.896;2023-06-24T12:45:58;1.93;;;1.83;;
21114;SDS011;10715;48.546;9.896;2023-06-24T12:48:23;2.60;;;2.43;;
21114;SDS011;10715;48.546;9.896;2023-06-24T12:50:49;5.47;;;2.40;;
21114;SDS011;10715;48.546;9.896;2023-06-24T12:53:18;2.13;;;2.03;;
21114;SDS011;10715;48.546;9.896;2023-06-24T12:55:44;2.43;;;2.23;;
21114;SDS011;10715;48.546;9.896;2023-06-24T12:58:10;4.13;;;2.50;;
21114;SDS011;10715;48.546;9.896;2023-06-24T13:00:38;4.63;;;3.10;;
21114;SDS011;10715;48.546;9.896;2023-06-24T13:03:04;3.90;;;2.10;;
21114;SDS011;10715;48.546;9.896;2023-06-24T13:05:29;9.60;;;2.90;;
21114;SDS011;10715;48.546;9.896;2023-06-24T13:07:55;2.10;;;1.90;;
21114;SDS011;10715;48.546;9.896;2023-06-24T13:10:21;2.47;;;2.17;;
21114;SDS011;10715;48.546;9.896;2023-06-24T13:12:47;4.57;;;2.83;;
21114;SDS011;10715;48.546;9.896;2023-06-24T13:15:12;2.17;;;2.00;;
21114;SDS011;10715;48.546;9.896;2023-06-24T13:17:38;2.30;;;2.13;;
21114;SDS011;10715;48.546;9.896;2023-06-24T13:20:04;7.27;;;1.73;;
21114;SDS011;10715;48.546;9.896;2023-06-24T13:22:30;2.83;;;2.63;;
21114;SDS011;10715;48.546;9.896;2023-06-24T13:24:56;2.83;;;2.10;;
21114;SDS011;10715;48.546;9.896;2023-06-24T13:27:22;2.43;;;2.23;;
21114;SDS011;10715;48.546;9.896;2023-06-24T13:29:48;2.53;;;2.33;;
21114;SDS011;10715;48.546;9.896;2023-06-24T13:32:13;3.37;;;2.53;;
21114;SDS011;10715;48.546;9.896;2023-06-24T13:34:39;2.60;;;2.30;;
21114;SDS011;10715;48.546;9.896;2023-06-24T13:37:05;1.73;;;1.63;;
21114;SDS011;10715;48.546;9.896;2023-06-24T13:39:31;3.17;;;2.50;;
21114;SDS011;10715;48.546;9.896;2023-06-24T13:41:57;3.40;;;3.17;;
21114;SDS011;10715;48.546;9.896;2023-06-24T13:44:23;4.47;;;2.23;;
21114;SDS011;10715;48.546;9.896;2023-06-24T13:46:49;2.03;;;1.57;;
21114;SDS011;10715;48.546;9.896;2023-06-24T13:49:18;2.20;;;1.90;;
21114;SDS011;10715;48.546;9.896;2023-06-24T13:51:44;1.60;;;1.50;;
21114;SDS011;10715;48.546;9.896;2023-06-24T13:54:10;1.40;;;1.23;;
21114;SDS011;10715;48.546;9.896;2023-06-24T13:56:36;2.23;;;2.00;;
21114;SDS011;10715;48.546;9.896;2023-06-24T13:59:02;2.10;;;1.90;;
21114;SDS011;10715;48.546;9.896;2023-06-24T14:01:28;3.60;;;2.00;;
21114;SDS011;10715;48.546;9.896;2023-06-24T14:03:54;2.33;;;2.13;;
21114;SDS011;10715;48.546;9.896;2023-06-24T14:06:21;2.00;;;1.50;;
21114;SDS011;10715;48.546;9.896;2023-06-24T14:08:51;5.33;;;1.73;;
21114;SDS011;10715;48.546;9.896;2023-06-24T14:11:17;2.37;;;2.17;;
21114;SDS011;10715;48.546;9.896;2023-06-24T14:13:43;2.60;;;2.10;;
21114;SDS011;10715;48.546;9.896;2023-06-24T14:16:09;2.30;;;1.90;;
21114;SDS011;10715;48.546;9.896;2023-06-24T14:18:36;1.60;;;1.47;;
21114;SDS011;10715;48.546;9.896;2023-06-24T14:21:03;2.47;;;1.43;;
21114;SDS011;10715;48.546;9.896;2023-06-24T14:23:30;1.73;;;1.63;;
21114;SDS011;10715;48.546;9.896;2023-06-24T14:25:57;2.37;;;2.17;;
21114;SDS011;10715;48.546;9.896;2023-06-24T14:28:24;2.00;;;1.80;;
21114;SDS011;10715;48.546;9.896;2023-06-24T14:30:50;2.23;;;1.80;;
21114;SDS011;10715;48.546;9.896;2023-06-24T14:33:15;2.13;;;1.93;;
21114;SDS011;10715;48.546;9.896;2023-06-24T14:35:41;1.70;;;1.60;;
21114;SDS011;10715;48.546;9.896;2023-06-24T14:38:07;2.17;;;1.80;;
21114;SDS011;10715;48.546;9.896;2023-06-24T14:40:33;2.60;;;2.30;;
21114;SDS011;10715;48.546;9.896;2023-06-24T14:42:59;2.60;;;2.40;;
21114;SDS011;10715;48.546;9.896;2023-06-24T14:45:25;2.17;;;1.97;;
21114;SDS011;10715;48.546;9.896;2023-06-24T14:47:51;4.03;;;2.00;;
21114;SDS011;10715;48.546;9.896;2023-06-24T14:50:17;2.70;;;1.90;;
21114;SDS011;10715;48.546;9.896;2023-06-24T14:52:43;3.07;;;2.47;;
21114;SDS011;10715;48.546;9.896;2023-06-24T14:55:08;2.73;;;2.40;;
21114;SDS011;10715;48.546;9.896;2023-06-24T14:57:35;1.83;;;1.73;;
21114;SDS011;10715;48.546;9.896;2023-06-24T15:00:01;2.27;;;2.10;;
21114;SDS011;10715;48.546;9.896;2023-06-24T15:02:28;1.93;;;1.83;;
21114;SDS011;10715;48.546;9.896;2023-06-24T15:04:54;2.83;;;1.93;;
21114;SDS011;10715;48.546;9.896;2023-06-24T15:07:20;3.67;;;2.07;;